createdAt,value
2023-05-16T00:02:05.897Z,1.17
2023-05-16T00:04:33.878Z,1.37
2023-05-16T00:07:01.432Z,1.40
2023-05-16T00:09:29.046Z,1.55
2023-05-16T00:11:57.024Z,1.67
2023-05-16T00:14:26.327Z,1.70
2023-05-16T00:16:54.514Z,1.70
2023-05-16T00:19:22.345Z,1.70
2023-05-16T00:21:49.795Z,1.50
2023-05-16T00:24:17.184Z,1.50
2023-05-16T00:26:44.817Z,1.58
2023-05-16T00:29:12.192Z,1.60
2023-05-16T00:31:39.582Z,1.65
2023-05-16T00:34:07.317Z,1.55
2023-05-16T00:36:35.874Z,1.30
2023-05-16T00:39:03.758Z,1.60
2023-05-16T00:41:31.760Z,1.67
2023-05-16T00:43:59.116Z,1.87
2023-05-16T00:46:26.501Z,1.80
2023-05-16T00:48:54.340Z,2.05
2023-05-16T00:51:21.720Z,1.60
2023-05-16T00:53:49.217Z,1.70
2023-05-16T00:56:17.866Z,1.55
2023-05-16T00:58:45.896Z,1.60
2023-05-16T01:01:14.376Z,1.60
2023-05-16T01:03:46.067Z,1.60
2023-05-16T01:06:13.624Z,1.48
2023-05-16T01:08:41.664Z,1.20
2023-05-16T01:11:19.966Z,1.12
2023-05-16T01:14:05.928Z,0.90
2023-05-16T01:19:44.251Z,1.02
2023-05-16T01:22:17.150Z,0.77
2023-05-16T01:25:05.767Z,1.20
2023-05-16T01:27:34.557Z,1.45
2023-05-16T01:30:06.625Z,1.25
2023-05-16T01:32:34.422Z,1.00
2023-05-16T01:35:03.083Z,0.90
2023-05-16T01:37:41.783Z,1.00
2023-05-16T01:40:13.109Z,0.90
2023-05-16T01:42:44.360Z,1.08
2023-05-16T01:45:22.406Z,1.10
2023-05-16T01:48:19.830Z,0.90
2023-05-16T01:50:53.948Z,0.85
2023-05-16T01:53:26.930Z,0.80
2023-05-16T01:55:57.356Z,0.73
2023-05-16T01:58:26.604Z,1.00
2023-05-16T02:00:54.507Z,0.80
2023-05-16T02:03:22.306Z,0.80
2023-05-16T02:05:49.918Z,0.60
2023-05-16T02:08:17.529Z,0.80
2023-05-16T02:10:45.135Z,1.00
2023-05-16T02:13:12.515Z,0.90
2023-05-16T02:15:39.937Z,0.82
2023-05-16T02:18:07.781Z,0.80
2023-05-16T02:20:35.818Z,1.10
2023-05-16T02:23:06.140Z,0.93
2023-05-16T02:25:33.840Z,1.23
2023-05-16T02:28:01.243Z,0.70
2023-05-16T02:30:28.580Z,0.90
2023-05-16T02:32:56.385Z,1.48
2023-05-16T02:35:24.548Z,1.35
2023-05-16T02:37:52.284Z,1.25
2023-05-16T02:40:20.051Z,1.05
2023-05-16T02:42:47.621Z,1.05
2023-05-16T02:45:16.415Z,1.40
2023-05-16T02:47:44.768Z,1.30
2023-05-16T02:50:12.132Z,1.10
2023-05-16T02:52:39.596Z,1.20
2023-05-16T02:57:38.137Z,1.25
2023-05-16T03:00:06.396Z,1.40
2023-05-16T03:02:34.261Z,1.25
2023-05-16T03:05:01.712Z,1.17
2023-05-16T03:07:29.239Z,1.12
2023-05-16T03:09:57.272Z,1.30
2023-05-16T03:12:24.670Z,1.20
2023-05-16T03:14:52.394Z,1.10
2023-05-16T03:17:20.119Z,1.20
2023-05-16T03:19:47.632Z,0.90
2023-05-16T03:22:15.273Z,1.10
2023-05-16T03:24:43.740Z,0.98
2023-05-16T03:27:12.152Z,1.10
2023-05-16T03:29:39.598Z,1.15
2023-05-16T03:32:07.543Z,1.08
2023-05-16T03:34:35.269Z,1.10
2023-05-16T03:37:02.682Z,1.23
2023-05-16T03:39:30.301Z,1.10
2023-05-16T03:41:57.804Z,1.20
2023-05-16T03:44:25.266Z,1.20
2023-05-16T03:46:54.217Z,1.12
2023-05-16T03:49:26.765Z,1.10
2023-05-16T03:51:54.438Z,1.00
2023-05-16T03:54:22.343Z,0.80
2023-05-16T03:56:49.923Z,1.00
2023-05-16T03:59:17.640Z,1.30
2023-05-16T04:01:45.099Z,1.25
2023-05-16T04:04:12.797Z,1.00
2023-05-16T04:06:40.521Z,1.15
2023-05-16T04:09:07.875Z,1.20
2023-05-16T04:11:36.405Z,1.00
2023-05-16T04:14:03.847Z,0.88
2023-05-16T04:16:31.305Z,1.27
2023-05-16T04:18:59.449Z,1.17
2023-05-16T04:21:26.862Z,1.00
2023-05-16T04:23:54.276Z,1.00
2023-05-16T04:26:24.944Z,1.10
2023-05-16T04:28:52.858Z,1.10
2023-05-16T04:31:20.258Z,1.10
2023-05-16T04:33:47.945Z,1.00
2023-05-16T04:36:15.317Z,1.08
2023-05-16T04:38:42.933Z,1.10
2023-05-16T04:41:10.558Z,1.20
2023-05-16T04:43:38.098Z,1.30
2023-05-16T04:46:06.796Z,1.30
2023-05-16T04:48:34.463Z,1.92
2023-05-16T04:51:01.829Z,1.25
2023-05-16T04:53:29.215Z,1.50
2023-05-16T04:55:56.870Z,1.25
2023-05-16T04:58:24.381Z,1.27
2023-05-16T05:00:52.428Z,1.30
2023-05-16T05:03:20.193Z,1.20
2023-05-16T05:05:47.805Z,1.20
2023-05-16T05:08:15.409Z,1.60
2023-05-16T05:10:43.173Z,1.23
2023-05-16T05:13:11.537Z,1.30
2023-05-16T05:15:38.939Z,1.42
2023-05-16T05:18:06.739Z,1.67
2023-05-16T05:20:34.219Z,1.37
2023-05-16T05:23:01.662Z,1.80
2023-05-16T05:25:29.579Z,1.60
2023-05-16T05:27:57.116Z,1.40
2023-05-16T05:30:24.514Z,1.48
2023-05-16T05:32:53.364Z,1.40
2023-05-16T05:35:21.316Z,1.30
2023-05-16T05:37:48.850Z,1.37
2023-05-16T05:40:16.556Z,1.67
2023-05-16T05:42:46.764Z,1.62
2023-05-16T05:45:15.987Z,1.83
2023-05-16T05:47:43.964Z,1.80
2023-05-16T05:50:11.635Z,1.42
2023-05-16T05:52:39.040Z,1.52
2023-05-16T05:55:06.934Z,1.70
2023-05-16T05:57:34.306Z,2.00
2023-05-16T06:00:01.708Z,2.10
2023-05-16T06:02:35.266Z,2.10
2023-05-16T06:05:03.031Z,2.53
2023-05-16T06:07:31.350Z,2.08
2023-05-16T06:09:59.590Z,1.70
2023-05-16T06:12:27.257Z,2.08
2023-05-16T06:14:54.737Z,2.22
2023-05-16T06:17:22.235Z,1.50
2023-05-16T06:19:49.858Z,2.10
2023-05-16T06:22:17.260Z,2.80
2023-05-16T06:24:44.635Z,2.97
2023-05-16T06:27:12.311Z,2.60
2023-05-16T06:29:39.719Z,2.75
2023-05-16T06:32:07.363Z,3.58
2023-05-16T06:34:35.292Z,3.45
2023-05-16T06:37:03.812Z,3.60
2023-05-16T06:39:31.196Z,3.80
2023-05-16T06:41:58.881Z,3.55
2023-05-16T06:44:27.135Z,3.53
2023-05-16T06:46:54.755Z,4.40
2023-05-16T06:49:22.504Z,4.03
2023-05-16T06:51:49.931Z,4.80
2023-05-16T06:54:17.354Z,4.80
2023-05-16T06:56:45.611Z,13.65
2023-05-16T06:59:13.250Z,6.28
2023-05-16T07:01:41.827Z,5.78
2023-05-16T07:04:09.625Z,6.57
2023-05-16T07:06:37.114Z,5.47
2023-05-16T07:09:04.727Z,4.62
2023-05-16T07:11:32.399Z,4.62
2023-05-16T07:13:59.817Z,4.78
2023-05-16T07:16:28.599Z,5.03
2023-05-16T07:18:56.907Z,5.28
2023-05-16T07:21:24.592Z,5.65
2023-05-16T07:23:52.076Z,5.43
2023-05-16T07:26:22.329Z,6.55
2023-05-16T07:28:50.800Z,6.43
2023-05-16T07:31:18.655Z,6.90
2023-05-16T07:33:49.323Z,6.47
2023-05-16T07:36:17.680Z,7.10
2023-05-16T07:38:45.345Z,7.53
2023-05-16T07:41:13.157Z,8.18
2023-05-16T07:43:40.578Z,8.07
2023-05-16T07:46:08.601Z,8.48
2023-05-16T07:48:36.338Z,8.90
2023-05-16T07:51:03.815Z,8.88
2023-05-16T07:53:31.216Z,8.93
2023-05-16T07:55:58.915Z,9.30
2023-05-16T07:58:26.416Z,9.38
2023-05-16T08:00:54.208Z,9.55
2023-05-16T08:03:22.243Z,10.43
2023-05-16T08:05:51.869Z,9.25
2023-05-16T08:08:19.420Z,12.55
2023-05-16T08:10:47.328Z,9.88
2023-05-16T08:13:14.839Z,11.25
2023-05-16T08:15:42.917Z,12.63
2023-05-16T08:18:15.151Z,11.07
2023-05-16T08:20:42.973Z,13.80
2023-05-16T08:23:10.706Z,13.50
2023-05-16T08:25:38.208Z,12.30
2023-05-16T08:28:05.681Z,11.82
2023-05-16T08:30:33.423Z,12.88
2023-05-16T08:33:04.840Z,12.57
2023-05-16T08:35:33.289Z,13.15
2023-05-16T08:38:00.792Z,12.70
2023-05-16T08:40:28.551Z,12.80
2023-05-16T08:42:56.360Z,13.60
2023-05-16T08:45:24.187Z,13.70
2023-05-16T08:47:55.137Z,13.43
2023-05-16T08:50:23.164Z,14.25
2023-05-16T08:52:52.609Z,13.00
2023-05-16T08:55:22.299Z,14.87
2023-05-16T08:57:51.597Z,14.15
2023-05-16T09:00:19.743Z,13.15
2023-05-16T09:02:47.386Z,13.43
2023-05-16T09:05:17.251Z,12.98
2023-05-16T09:07:45.629Z,12.63
2023-05-16T09:10:13.841Z,12.10
2023-05-16T09:12:42.358Z,11.80
2023-05-16T09:15:11.025Z,11.70
2023-05-16T09:17:43.000Z,9.85
2023-05-16T09:20:11.930Z,9.75
2023-05-16T09:22:39.628Z,9.65
2023-05-16T09:25:12.723Z,8.95
2023-05-16T09:27:53.258Z,8.75
2023-05-16T09:30:28.553Z,9.32
2023-05-16T09:32:56.385Z,8.60
2023-05-16T09:35:39.612Z,7.87
2023-05-16T09:38:16.690Z,8.77
2023-05-16T09:40:45.392Z,8.63
2023-05-16T09:43:17.097Z,8.18
2023-05-16T09:45:49.057Z,7.45
2023-05-16T09:48:18.093Z,7.65
2023-05-16T09:50:54.049Z,8.30
2023-05-16T09:53:28.724Z,7.95
2023-05-16T09:56:03.913Z,9.20
2023-05-16T09:58:33.846Z,9.63
2023-05-16T10:01:02.355Z,9.68
2023-05-16T10:03:30.374Z,9.23
2023-05-16T10:05:58.036Z,9.25
2023-05-16T10:08:26.753Z,9.05
2023-05-16T10:10:56.358Z,9.57
2023-05-16T10:13:27.274Z,10.43
2023-05-16T10:15:56.711Z,10.02
2023-05-16T10:18:31.587Z,10.85
2023-05-16T10:21:05.533Z,11.27
2023-05-16T10:23:34.025Z,10.63
2023-05-16T10:26:04.565Z,10.93
2023-05-16T10:28:32.680Z,11.48
2023-05-16T10:31:01.819Z,10.68
2023-05-16T10:33:29.836Z,12.27
2023-05-16T10:35:57.292Z,11.57
2023-05-16T10:38:25.404Z,12.65
2023-05-16T10:40:53.278Z,12.73
2023-05-16T10:43:25.243Z,13.20
2023-05-16T10:46:09.722Z,14.27
2023-05-16T10:48:39.715Z,13.10
2023-05-16T10:51:22.909Z,14.32
2023-05-16T10:53:54.705Z,13.88
2023-05-16T10:56:24.021Z,12.88
2023-05-16T10:58:53.534Z,12.63
2023-05-16T11:01:25.743Z,13.68
2023-05-16T11:03:59.563Z,13.32
2023-05-16T11:06:29.208Z,12.43
2023-05-16T11:09:13.388Z,12.63
2023-05-16T11:11:49.163Z,13.18
2023-05-16T11:14:32.885Z,13.35
2023-05-16T11:17:07.737Z,13.02
2023-05-16T11:19:36.544Z,12.27
2023-05-16T11:22:07.670Z,12.43
2023-05-16T11:24:36.693Z,12.23
2023-05-16T11:27:04.865Z,11.10
2023-05-16T11:29:36.257Z,11.82
2023-05-16T11:32:05.273Z,12.70
2023-05-16T11:34:37.723Z,11.40
2023-05-16T11:37:05.693Z,10.35
2023-05-16T11:39:33.274Z,12.05
2023-05-16T11:42:01.213Z,11.15
2023-05-16T11:44:28.964Z,12.30
2023-05-16T11:46:56.717Z,11.85
2023-05-16T11:49:24.308Z,13.02
2023-05-16T11:51:54.502Z,11.52
2023-05-16T11:54:22.422Z,11.60
2023-05-16T11:56:50.695Z,12.63
2023-05-16T11:59:18.837Z,12.70
2023-05-16T12:01:49.212Z,11.52
2023-05-16T12:04:17.714Z,11.15
2023-05-16T12:06:45.646Z,10.32
2023-05-16T12:09:18.358Z,11.02
2023-05-16T12:27:08.817Z,10.45
2023-05-16T12:29:36.601Z,10.77
2023-05-16T12:32:04.911Z,11.23
2023-05-16T12:34:32.346Z,13.00
2023-05-16T12:37:01.518Z,10.60
2023-05-16T12:39:37.282Z,9.60
2023-05-16T12:42:06.576Z,11.15
2023-05-16T12:44:34.028Z,10.85
2023-05-16T12:47:02.443Z,10.60
2023-05-16T12:49:30.245Z,9.63
2023-05-16T12:52:05.683Z,9.07
2023-05-16T12:54:35.926Z,10.50
2023-05-16T12:57:04.486Z,9.52
2023-05-16T12:59:31.859Z,10.23
2023-05-16T13:01:59.542Z,10.40
2023-05-16T13:04:26.996Z,10.50
2023-05-16T13:06:59.296Z,10.48
2023-05-16T13:09:32.098Z,9.50
2023-05-16T13:12:00.919Z,8.57
2023-05-16T13:14:28.738Z,9.07
2023-05-16T13:16:56.337Z,10.02
2023-05-16T13:19:24.521Z,9.93
2023-05-16T13:21:52.659Z,8.98
2023-05-16T13:24:20.144Z,10.13
2023-05-16T13:26:47.564Z,9.32
2023-05-16T13:29:15.309Z,9.23
2023-05-16T13:31:42.825Z,9.55
2023-05-16T13:34:10.375Z,10.02
2023-05-16T13:36:52.266Z,9.82
2023-05-16T13:39:21.872Z,10.02
2023-05-16T13:41:49.772Z,9.52
2023-05-16T13:44:18.122Z,9.98
2023-05-16T13:46:45.999Z,9.45
2023-05-16T13:49:13.737Z,10.30
2023-05-16T13:51:41.486Z,10.45
2023-05-16T13:54:09.089Z,10.77
2023-05-16T13:56:36.825Z,10.27
2023-05-16T13:59:07.138Z,9.52
2023-05-16T14:01:34.882Z,9.52
2023-05-16T14:04:03.338Z,9.02
2023-05-16T14:06:31.497Z,9.43
2023-05-16T14:08:58.956Z,9.10
2023-05-16T14:11:29.178Z,9.35
2023-05-16T14:13:58.075Z,9.00
2023-05-16T14:16:25.997Z,9.05
2023-05-16T14:18:53.855Z,9.32
2023-05-16T14:21:21.292Z,9.10
2023-05-16T14:23:51.741Z,9.20
2023-05-16T14:26:25.159Z,9.30
2023-05-16T14:28:52.599Z,8.23
2023-05-16T14:31:20.664Z,8.35
2023-05-16T14:33:49.464Z,8.55
2023-05-16T14:36:18.024Z,8.23
2023-05-16T14:38:45.814Z,9.40
2023-05-16T14:41:13.267Z,8.20
2023-05-16T14:43:40.823Z,8.32
2023-05-16T14:46:09.075Z,8.18
2023-05-16T14:48:36.620Z,8.82
2023-05-16T14:51:05.091Z,9.20
2023-05-16T14:53:32.894Z,10.00
2023-05-16T14:56:02.856Z,9.00
2023-05-16T14:58:30.759Z,10.40
2023-05-16T15:00:58.643Z,9.57
2023-05-16T15:03:26.199Z,10.30
2023-05-16T15:05:54.677Z,9.45
2023-05-16T15:08:24.014Z,9.30
2023-05-16T15:10:51.805Z,9.88
2023-05-16T15:13:19.559Z,8.85
2023-05-16T15:15:49.585Z,8.85
2023-05-16T15:18:17.705Z,9.50
2023-05-16T15:20:45.452Z,10.40
2023-05-16T15:23:15.682Z,11.45
2023-05-16T15:25:43.332Z,13.13
2023-05-16T15:28:10.934Z,13.88
2023-05-16T15:30:38.822Z,11.43
2023-05-16T15:33:06.480Z,12.48
2023-05-16T15:35:34.003Z,11.70
2023-05-16T15:38:02.134Z,12.60
2023-05-16T15:40:29.954Z,12.35
2023-05-16T15:42:57.424Z,15.25
2023-05-16T15:45:25.653Z,15.13
2023-05-16T15:47:53.869Z,14.18
2023-05-16T15:50:22.275Z,12.73
2023-05-16T15:55:25.991Z,13.00
2023-05-16T15:57:59.630Z,12.27
2023-05-16T16:00:27.377Z,13.82
2023-05-16T16:02:55.774Z,12.90
2023-05-16T16:05:23.765Z,12.50
2023-05-16T16:07:55.124Z,12.55
2023-05-16T16:10:23.169Z,12.48
2023-05-16T16:13:03.956Z,12.43
2023-05-16T16:15:33.542Z,11.43
2023-05-16T16:18:02.005Z,10.73
2023-05-16T16:20:29.788Z,11.35
2023-05-16T16:22:57.675Z,10.88
2023-05-16T16:25:25.877Z,10.52
2023-05-16T16:27:53.539Z,12.25
2023-05-16T16:30:22.821Z,11.30
2023-05-16T16:32:50.482Z,12.93
2023-05-16T16:35:18.129Z,12.82
2023-05-16T16:37:54.821Z,14.10
2023-05-16T16:40:32.983Z,13.52
2023-05-16T16:43:01.472Z,13.73
2023-05-16T16:45:29.477Z,13.57
2023-05-16T16:47:57.976Z,14.23
2023-05-16T16:50:26.373Z,13.77
2023-05-16T16:52:54.905Z,13.98
2023-05-16T16:55:22.483Z,13.85
2023-05-16T16:57:50.640Z,12.90
2023-05-16T17:00:18.772Z,13.40
2023-05-16T17:02:46.633Z,15.10
2023-05-16T17:05:14.997Z,13.18
2023-05-16T17:07:43.179Z,13.77
2023-05-16T17:10:10.723Z,13.55
2023-05-16T17:12:46.820Z,13.98
2023-05-16T17:15:14.406Z,15.50
2023-05-16T17:17:42.987Z,15.80
2023-05-16T17:20:12.887Z,15.68
2023-05-16T17:22:41.047Z,15.02
2023-05-16T17:25:10.083Z,14.82
2023-05-16T17:27:38.622Z,14.80
2023-05-16T17:30:07.646Z,14.20
2023-05-16T17:32:35.764Z,12.95
2023-05-16T17:35:04.303Z,13.62
2023-05-16T17:37:33.426Z,12.55
2023-05-16T17:40:01.521Z,13.90
2023-05-16T17:42:29.175Z,13.93
2023-05-16T17:44:57.058Z,14.38
2023-05-16T17:47:25.713Z,16.92
2023-05-16T17:49:53.252Z,16.02
2023-05-16T17:52:22.452Z,17.48
2023-05-16T17:54:50.207Z,14.35
2023-05-16T17:57:17.613Z,13.65
2023-05-16T17:59:45.159Z,14.40
2023-05-16T18:02:15.520Z,19.60
2023-05-16T18:04:46.895Z,16.85
2023-05-16T18:07:14.522Z,15.32
2023-05-16T18:09:42.292Z,16.40
2023-05-16T18:12:10.324Z,16.05
2023-05-16T18:14:43.082Z,17.58
2023-05-16T18:17:13.435Z,19.90
2023-05-16T18:19:41.630Z,18.50
2023-05-16T18:22:11.969Z,15.82
2023-05-16T18:24:40.205Z,15.18
2023-05-16T18:27:08.392Z,15.57
2023-05-16T18:29:36.524Z,13.93
2023-05-16T18:32:04.829Z,14.50
2023-05-16T18:34:32.786Z,14.27
2023-05-16T18:37:00.263Z,14.10
2023-05-16T18:39:28.011Z,14.20
2023-05-16T18:41:55.820Z,14.10
2023-05-16T18:44:24.091Z,15.05
2023-05-16T18:46:52.177Z,15.23
2023-05-16T18:49:20.527Z,14.63
2023-05-16T18:51:48.821Z,14.87
2023-05-16T18:54:16.875Z,14.77
2023-05-16T18:56:45.069Z,15.18
2023-05-16T18:59:13.409Z,16.25
2023-05-16T19:01:41.701Z,16.45
2023-05-16T19:04:10.932Z,14.45
2023-05-16T19:06:39.247Z,14.93
2023-05-16T19:09:08.556Z,15.05
2023-05-16T19:11:38.465Z,14.50
2023-05-16T19:14:06.861Z,15.25
2023-05-16T19:16:35.598Z,14.60
2023-05-16T19:19:04.719Z,15.43
2023-05-16T19:21:35.616Z,15.05
2023-05-16T19:24:03.788Z,16.02
2023-05-16T19:26:31.403Z,15.50
2023-05-16T19:29:00.498Z,15.13
2023-05-16T19:31:28.986Z,15.93
2023-05-16T19:33:59.346Z,14.75
2023-05-16T19:36:27.297Z,16.25
2023-05-16T19:38:55.351Z,14.87
2023-05-16T19:41:24.759Z,15.70
2023-05-16T19:43:52.527Z,15.18
2023-05-16T19:46:20.773Z,14.85
2023-05-16T19:48:49.169Z,15.90
2023-05-16T19:51:23.782Z,14.27
2023-05-16T19:53:57.868Z,13.80
2023-05-16T19:56:25.389Z,14.73
2023-05-16T19:58:52.959Z,13.57
2023-05-16T20:01:21.039Z,13.43
2023-05-16T20:03:49.187Z,13.65
2023-05-16T20:06:16.892Z,13.18
2023-05-16T20:08:44.375Z,13.35
2023-05-16T20:11:13.124Z,15.00
2023-05-16T20:13:40.633Z,14.38
2023-05-16T20:16:08.288Z,15.73
2023-05-16T20:18:36.376Z,12.85
2023-05-16T20:21:04.052Z,12.88
2023-05-16T20:23:31.665Z,13.80
2023-05-16T20:25:59.450Z,13.45
2023-05-16T20:28:26.954Z,13.65
2023-05-16T20:30:54.444Z,13.55
2023-05-16T20:33:22.382Z,14.68
2023-05-16T20:35:49.847Z,14.18
2023-05-16T20:38:17.276Z,13.62
2023-05-16T20:40:44.990Z,13.77
2023-05-16T20:43:12.491Z,15.40
2023-05-16T20:45:39.995Z,14.18
2023-05-16T20:48:08.431Z,13.10
2023-05-16T20:50:39.004Z,13.85
2023-05-16T20:53:06.412Z,13.70
2023-05-16T20:55:34.072Z,13.93
2023-05-16T20:58:01.532Z,13.57
2023-05-16T21:00:29.058Z,12.98
2023-05-16T21:02:56.846Z,12.73
2023-05-16T21:05:25.863Z,12.70
2023-05-16T21:07:53.806Z,11.73
2023-05-16T21:10:21.560Z,11.60
2023-05-16T21:12:50.221Z,12.68
2023-05-16T21:15:17.715Z,13.88
2023-05-16T21:17:45.697Z,13.68
2023-05-16T21:20:13.181Z,13.05
2023-05-16T21:22:41.076Z,12.68
2023-05-16T21:25:09.014Z,12.80
2023-05-16T21:27:36.459Z,13.25
2023-05-16T21:30:04.300Z,13.75
2023-05-16T21:32:32.989Z,13.43
2023-05-16T21:35:04.808Z,13.18
2023-05-16T21:37:33.076Z,13.18
2023-05-16T21:40:00.746Z,11.77
2023-05-16T21:42:28.422Z,13.52
2023-05-16T21:44:56.261Z,12.27
2023-05-16T21:47:24.300Z,11.52
2023-05-16T21:49:51.730Z,12.18
2023-05-16T21:52:19.642Z,12.45
2023-05-16T21:54:51.697Z,13.95
2023-05-16T21:57:19.811Z,13.05
2023-05-16T21:59:50.498Z,13.85
2023-05-16T22:02:22.731Z,12.80
2023-05-16T22:04:52.246Z,14.55
2023-05-16T22:07:19.972Z,14.05
2023-05-16T22:09:50.891Z,12.70
2023-05-16T22:12:18.739Z,11.10
2023-05-16T22:14:46.197Z,12.73
2023-05-16T22:17:13.673Z,12.57
2023-05-16T22:19:42.417Z,12.13
2023-05-16T22:22:10.740Z,11.68
2023-05-16T22:24:38.934Z,11.20
2023-05-16T22:27:06.705Z,11.48
2023-05-16T22:29:38.165Z,11.82
2023-05-16T22:32:09.473Z,11.15
2023-05-16T22:34:40.558Z,11.07
2023-05-16T22:37:09.430Z,11.23
2023-05-16T22:39:37.282Z,10.85
2023-05-16T22:42:05.095Z,11.27
2023-05-16T22:44:32.557Z,10.48
2023-05-16T22:47:00.555Z,11.80
2023-05-16T22:49:28.157Z,11.43
2023-05-16T22:51:55.601Z,10.13
2023-05-16T22:54:23.379Z,10.43
2023-05-16T22:56:51.890Z,9.95
2023-05-16T22:59:19.325Z,10.80
2023-05-16T23:01:47.021Z,10.43
2023-05-16T23:04:14.553Z,11.07
2023-05-16T23:06:42.001Z,10.95
2023-05-16T23:09:09.648Z,11.27
2023-05-16T23:11:37.318Z,10.32
2023-05-16T23:14:04.736Z,10.88
2023-05-16T23:16:32.405Z,11.43
2023-05-16T23:18:59.855Z,11.52
2023-05-16T23:21:27.396Z,10.90
2023-05-16T23:23:55.088Z,9.30
2023-05-16T23:26:22.550Z,9.80
2023-05-16T23:28:50.152Z,9.45
2023-05-16T23:31:17.826Z,9.93
2023-05-16T23:33:45.266Z,9.40
2023-05-16T23:36:12.704Z,9.77
2023-05-16T23:38:40.378Z,8.75
2023-05-16T23:41:07.906Z,10.15
2023-05-16T23:43:35.392Z,9.23
2023-05-16T23:46:03.093Z,9.50
2023-05-16T23:48:30.630Z,9.05
2023-05-16T23:50:58.685Z,10.18
2023-05-16T23:53:29.079Z,9.63
2023-05-16T23:55:56.497Z,9.45
2023-05-16T23:58:24.007Z,9.07
